createdAt,value
2018-07-21T00:00:10.285Z,100133.91
2018-07-21T00:02:38.770Z,100122.91
2018-07-21T00:05:07.356Z,100138.23
2018-07-21T00:07:35.797Z,100136.75
2018-07-21T00:10:04.421Z,100134.89
2018-07-21T00:12:32.897Z,100127.09
2018-07-21T00:15:01.435Z,100121.08
2018-07-21T00:17:29.872Z,100123.48
2018-07-21T00:19:58.389Z,100121.72
2018-07-21T00:22:26.955Z,100124.11
2018-07-21T00:24:55.464Z,100119.39
2018-07-21T00:27:23.937Z,100114.66
2018-07-21T00:29:52.362Z,100113.94
2018-07-21T00:32:20.937Z,100114.49
2018-07-21T00:34:49.465Z,100107.76
2018-07-21T00:37:18.067Z,100108.92
2018-07-21T00:39:46.687Z,100110.36
2018-07-21T00:42:15.330Z,100112.07
2018-07-21T00:44:43.892Z,100112.23
2018-07-21T00:47:12.377Z,100108.17
2018-07-21T00:49:41.026Z,100108.62
2018-07-21T00:52:09.575Z,100111.37
2018-07-21T00:54:38.096Z,100106.28
2018-07-21T00:57:06.658Z,100112.22
2018-07-21T00:59:35.150Z,100112.03
2018-07-21T01:02:03.837Z,100113.49
2018-07-21T01:04:32.325Z,100109.05
2018-07-21T01:07:00.837Z,100099.96
2018-07-21T01:09:29.427Z,100097.09
2018-07-21T01:11:57.922Z,100092.73
2018-07-21T01:14:26.411Z,100095.05
2018-07-21T01:16:54.925Z,100092.06
2018-07-21T01:19:23.365Z,100095.68
2018-07-21T01:21:51.888Z,100098.74
2018-07-21T01:24:20.430Z,100097.72
2018-07-21T01:26:48.968Z,100095.09
2018-07-21T01:29:17.450Z,100103.81
2018-07-21T01:31:45.994Z,100099.68
2018-07-21T01:34:14.533Z,100103.83
2018-07-21T01:36:43.119Z,100110.78
2018-07-21T01:39:12.193Z,100107.59
2018-07-21T01:41:41.093Z,100107.91
2018-07-21T01:44:09.566Z,100109.52
2018-07-21T01:46:38.025Z,100107.60
2018-07-21T01:49:06.558Z,100104.58
2018-07-21T01:51:34.985Z,100105.53
2018-07-21T01:54:03.539Z,100109.52
2018-07-21T01:56:32.056Z,100111.36
2018-07-21T01:59:00.617Z,100103.09
2018-07-21T02:01:29.124Z,100099.75
2018-07-21T02:03:57.671Z,100095.94
2018-07-21T02:06:26.116Z,100091.61
2018-07-21T02:08:54.650Z,100088.63
2018-07-21T02:11:23.140Z,100079.28
2018-07-21T02:13:51.636Z,100080.00
2018-07-21T02:16:20.114Z,100082.59
2018-07-21T02:18:48.836Z,100082.46
2018-07-21T02:21:17.307Z,100077.15
2018-07-21T02:23:45.964Z,100077.58
2018-07-21T02:26:14.591Z,100075.14
2018-07-21T02:28:43.062Z,100072.23
2018-07-21T02:31:11.565Z,100064.13
2018-07-21T02:33:40.049Z,100061.95
2018-07-21T02:36:08.578Z,100063.07
2018-07-21T02:38:37.041Z,100052.71
2018-07-21T02:41:05.524Z,100055.16
2018-07-21T02:43:34.092Z,100060.02
2018-07-21T02:46:02.581Z,100051.42
2018-07-21T02:48:31.046Z,100041.60
2018-07-21T02:50:59.542Z,100047.50
2018-07-21T02:53:27.971Z,100053.29
2018-07-21T02:55:59.348Z,100054.12
2018-07-21T02:58:28.759Z,100049.23
2018-07-21T03:00:57.233Z,100041.96
2018-07-21T03:03:25.646Z,100036.06
2018-07-21T03:05:54.133Z,100040.98
2018-07-21T03:08:22.601Z,100045.48
2018-07-21T03:10:51.181Z,100038.69
2018-07-21T03:13:19.691Z,100049.23
2018-07-21T03:15:48.163Z,100046.13
2018-07-21T03:18:16.703Z,100048.44
2018-07-21T03:20:45.199Z,100048.64
2018-07-21T03:23:13.702Z,100050.03
2018-07-21T03:25:42.223Z,100048.27
2018-07-21T03:28:10.650Z,100055.25
2018-07-21T03:30:39.094Z,100053.70
2018-07-21T03:33:07.565Z,100054.33
2018-07-21T03:35:36.057Z,100053.56
2018-07-21T03:38:04.860Z,100056.91
2018-07-21T03:40:33.490Z,100057.70
2018-07-21T03:43:01.978Z,100049.29
2018-07-21T03:45:30.454Z,100055.03
2018-07-21T03:47:59.009Z,100047.23
2018-07-21T03:50:27.537Z,100048.53
2018-07-21T03:52:56.117Z,100052.88
2018-07-21T03:55:24.600Z,100040.41
2018-07-21T03:57:54.357Z,100045.19
2018-07-21T04:00:22.797Z,100037.06
2018-07-21T04:02:51.365Z,100036.67
2018-07-21T04:05:19.919Z,100036.67
2018-07-21T04:07:48.434Z,100034.08
2018-07-21T04:10:16.913Z,100035.30
2018-07-21T04:12:45.609Z,100039.41
2018-07-21T04:15:14.156Z,100036.45
2018-07-21T04:17:42.701Z,100039.33
2018-07-21T04:20:11.189Z,100037.82
2018-07-21T04:22:39.618Z,100039.33
2018-07-21T04:25:08.204Z,100047.89
2018-07-21T04:27:36.693Z,100046.64
2018-07-21T04:30:05.517Z,100045.45
2018-07-21T04:32:33.960Z,100049.01
2018-07-21T04:35:02.571Z,100047.78
2018-07-21T04:37:31.084Z,100046.99
2018-07-21T04:39:59.513Z,100044.19
2018-07-21T04:42:28.019Z,100048.17
2018-07-21T04:44:56.645Z,100044.78
2018-07-21T04:47:25.115Z,100046.39
2018-07-21T04:49:53.603Z,100050.41
2018-07-21T04:52:22.110Z,100053.59
2018-07-21T04:54:50.637Z,100050.28
2018-07-21T04:57:19.250Z,100050.48
2018-07-21T04:59:47.744Z,100055.41
2018-07-21T05:02:16.242Z,100052.56
2018-07-21T05:04:44.727Z,100055.48
2018-07-21T05:07:13.313Z,100053.91
2018-07-21T05:09:41.788Z,100059.08
2018-07-21T05:12:11.090Z,100054.47
2018-07-21T05:14:39.586Z,100056.53
2018-07-21T05:17:08.209Z,100055.03
2018-07-21T05:19:36.766Z,100046.43
2018-07-21T05:22:05.214Z,100051.56
2018-07-21T05:24:33.669Z,100056.20
2018-07-21T05:27:02.343Z,100042.31
2018-07-21T05:29:30.802Z,100044.45
2018-07-21T05:31:59.274Z,100037.19
2018-07-21T05:34:27.810Z,100035.17
2018-07-21T05:36:56.287Z,100038.42
2018-07-21T05:39:25.198Z,100030.63
2018-07-21T05:41:53.887Z,100036.02
2018-07-21T05:44:22.342Z,100044.81
2018-07-21T05:46:50.825Z,100042.30
2018-07-21T05:49:19.227Z,100043.45
2018-07-21T05:51:47.711Z,100045.09
2018-07-21T05:54:16.304Z,100039.48
2018-07-21T05:56:44.799Z,100048.77
2018-07-21T05:59:13.333Z,100044.62
2018-07-21T06:01:41.772Z,100042.08
2018-07-21T06:04:10.286Z,100041.13
2018-07-21T06:06:38.784Z,100046.19
2018-07-21T06:09:09.043Z,100042.55
2018-07-21T06:11:37.521Z,100046.00
2018-07-21T06:14:06.177Z,100043.56
2018-07-21T06:16:34.715Z,100040.55
2018-07-21T06:19:03.108Z,100052.43
2018-07-21T06:21:31.569Z,100048.50
2018-07-21T06:24:00.094Z,100052.66
2018-07-21T06:26:28.724Z,100057.77
2018-07-21T06:28:57.203Z,100060.61
2018-07-21T06:31:25.682Z,100059.79
2018-07-21T06:33:54.094Z,100058.22
2018-07-21T06:36:22.898Z,100060.02
2018-07-21T06:38:51.451Z,100061.09
2018-07-21T06:41:19.877Z,100055.97
2018-07-21T06:43:48.500Z,100062.16
2018-07-21T06:46:16.999Z,100064.87
2018-07-21T06:48:45.521Z,100068.34
2018-07-21T06:51:14.058Z,100062.59
2018-07-21T06:53:42.591Z,100066.29
2018-07-21T06:56:13.329Z,100062.88
2018-07-21T06:58:44.366Z,100068.68
2018-07-21T07:01:15.201Z,100055.89
2018-07-21T07:03:43.750Z,100069.69
2018-07-21T07:06:12.321Z,100067.70
2018-07-21T07:08:40.801Z,100071.81
2018-07-21T07:11:09.363Z,100064.21
2018-07-21T07:13:37.828Z,100066.93
2018-07-21T07:16:06.659Z,100070.66
2018-07-21T07:18:35.188Z,100070.48
2018-07-21T07:21:05.101Z,100068.36
2018-07-21T07:23:33.623Z,100079.70
2018-07-21T07:26:03.633Z,100075.97
2018-07-21T07:28:34.642Z,100080.71
2018-07-21T07:31:05.497Z,100076.34
2018-07-21T07:33:36.942Z,100073.70
2018-07-21T07:36:05.493Z,100079.47
2018-07-21T07:38:34.839Z,100076.04
2018-07-21T07:41:05.562Z,100072.89
2018-07-21T07:43:34.574Z,100076.27
2018-07-21T07:46:06.271Z,100076.90
2018-07-21T07:48:34.764Z,100072.36
2018-07-21T07:51:04.048Z,100071.23
2018-07-21T07:53:34.922Z,100068.26
2018-07-21T07:56:03.939Z,100069.31
2018-07-21T07:58:32.607Z,100058.05
2018-07-21T08:01:03.442Z,100061.08
2018-07-21T08:03:32.190Z,100056.83
2018-07-21T08:06:01.749Z,100058.91
2018-07-21T08:08:30.864Z,100059.53
2018-07-21T08:10:59.629Z,100057.44
2018-07-21T08:13:28.250Z,100064.11
2018-07-21T08:15:56.986Z,100059.40
2018-07-21T08:18:25.623Z,100049.83
2018-07-21T08:20:54.424Z,100050.87
2018-07-21T08:23:23.798Z,100055.23
2018-07-21T08:25:52.328Z,100048.80
2018-07-21T08:28:21.060Z,100042.73
2018-07-21T08:30:49.802Z,100041.85
2018-07-21T08:33:18.313Z,100048.55
2018-07-21T08:35:46.710Z,100041.95
2018-07-21T08:38:15.376Z,100041.34
2018-07-21T08:40:43.956Z,100035.45
2018-07-21T08:43:12.603Z,100046.66
2018-07-21T08:45:42.886Z,100045.17
2018-07-21T08:48:11.392Z,100046.03
2018-07-21T08:50:40.187Z,100045.73
2018-07-21T08:53:08.889Z,100056.25
2018-07-21T08:55:37.274Z,100045.70
2018-07-21T08:58:05.809Z,100044.45
2018-07-21T09:00:34.387Z,100049.57
2018-07-21T09:03:03.115Z,100045.41
2018-07-21T09:05:31.556Z,100039.56
2018-07-21T09:08:00.093Z,100058.06
2018-07-21T09:10:29.048Z,100044.94
2018-07-21T09:12:57.532Z,100047.32
2018-07-21T09:15:26.050Z,100041.73
2018-07-21T09:17:54.701Z,100047.02
2018-07-21T09:20:37.550Z,100044.37
2018-07-21T09:23:06.047Z,100048.42
2018-07-21T09:25:34.678Z,100046.00
2018-07-21T09:28:03.207Z,100037.55
2018-07-21T09:30:31.840Z,100044.16
2018-07-21T09:33:00.845Z,100049.33
2018-07-21T09:35:29.378Z,100051.91
2018-07-21T09:37:57.903Z,100052.08
2018-07-21T09:40:26.637Z,100052.37
2018-07-21T09:42:55.274Z,100054.08
2018-07-21T09:45:24.286Z,100049.45
2018-07-21T09:50:57.324Z,100048.20
2018-07-21T09:54:37.102Z,100049.31
2018-07-21T09:57:06.224Z,100057.78
2018-07-21T09:59:35.462Z,100049.45
2018-07-21T10:02:04.670Z,100043.30
2018-07-21T10:04:34.349Z,100043.84
2018-07-21T10:07:04.296Z,100053.44
2018-07-21T10:09:33.146Z,100044.00
2018-07-21T10:12:01.808Z,100046.39
2018-07-21T10:14:30.936Z,100040.31
2018-07-21T10:16:59.648Z,100038.87
2018-07-21T10:19:30.051Z,100045.90
2018-07-21T10:21:59.726Z,100042.48
2018-07-21T10:24:33.679Z,100048.00
2018-07-21T10:27:09.224Z,100037.14
2018-07-21T10:29:40.545Z,100038.53
2018-07-21T10:32:12.182Z,100040.95
2018-07-21T10:34:42.981Z,100040.30
2018-07-21T10:53:18.312Z,100031.09
2018-07-21T10:55:47.011Z,100022.84
2018-07-21T10:58:15.644Z,100016.20
2018-07-21T11:00:44.215Z,100029.46
2018-07-21T11:03:12.746Z,100022.70
2018-07-21T11:05:41.640Z,100021.67
2018-07-21T11:08:10.533Z,100028.13
2018-07-21T11:10:39.045Z,100025.31
2018-07-21T11:13:07.598Z,100031.11
2018-07-21T11:15:36.073Z,100028.91
2018-07-21T11:18:05.015Z,100026.78
2018-07-21T11:20:33.691Z,100025.07
2018-07-21T11:23:02.808Z,100025.99
2018-07-21T11:25:31.657Z,100027.45
2018-07-21T11:28:00.676Z,100023.56
2018-07-21T11:30:29.256Z,100028.30
2018-07-21T11:32:58.153Z,100026.08
2018-07-21T11:35:26.841Z,100023.83
2018-07-21T11:37:55.540Z,100025.14
2018-07-21T11:40:24.213Z,100015.56
2018-07-21T11:42:53.373Z,100016.23
2018-07-21T11:45:22.318Z,100021.16
2018-07-21T11:47:51.578Z,100020.13
2018-07-21T11:50:20.461Z,100026.48
2018-07-21T11:52:49.478Z,100024.66
2018-07-21T11:55:18.442Z,100032.30
2018-07-21T11:57:47.350Z,100021.57
2018-07-21T12:00:16.440Z,100026.22
2018-07-21T12:02:45.337Z,100029.91
2018-07-21T12:05:14.481Z,100030.76
2018-07-21T12:07:43.336Z,100020.94
2018-07-21T12:10:12.243Z,100025.83
2018-07-21T12:12:44.361Z,100027.70
2018-07-21T12:15:13.100Z,100022.25
2018-07-21T12:17:42.157Z,100015.39
2018-07-21T12:20:11.640Z,100024.27
2018-07-21T12:25:31.456Z,100008.32
2018-07-21T12:28:00.636Z,100018.44
2018-07-21T12:30:29.350Z,100021.95
2018-07-21T12:32:58.248Z,100021.92
2018-07-21T12:35:27.311Z,100010.41
2018-07-21T12:37:56.440Z,100012.14
2018-07-21T12:40:25.099Z,100018.47
2018-07-21T12:42:53.585Z,100014.60
2018-07-21T12:45:22.386Z,100003.31
2018-07-21T12:47:52.917Z,100007.11
2018-07-21T12:50:22.204Z,100013.47
2018-07-21T12:52:50.999Z,100005.10
2018-07-21T12:55:21.007Z,100012.27
2018-07-21T12:57:49.531Z,100011.27
2018-07-21T13:00:18.215Z,100002.47
2018-07-21T13:02:47.694Z,100001.61
2018-07-21T13:05:18.459Z,99996.81
2018-07-21T13:07:47.154Z,100000.45
2018-07-21T13:10:17.210Z,99999.59
2018-07-21T13:12:46.104Z,100001.44
2018-07-21T13:15:16.227Z,99998.63
2018-07-21T13:17:45.391Z,100006.63
2018-07-21T13:20:14.217Z,100007.09
2018-07-21T13:22:43.788Z,100015.10
2018-07-21T13:25:12.904Z,100008.80
2018-07-21T13:27:41.528Z,100014.00
2018-07-21T13:30:11.018Z,100014.14
2018-07-21T13:32:40.901Z,100008.73
2018-07-21T13:35:12.043Z,100009.77
2018-07-21T13:37:40.601Z,100009.79
2018-07-21T13:40:10.743Z,100003.27
2018-07-21T13:42:39.410Z,100003.11
2018-07-21T13:45:10.210Z,99997.53
2018-07-21T13:47:41.133Z,99987.76
2018-07-21T13:50:15.214Z,99994.32
2018-07-21T13:52:47.408Z,99998.00
2018-07-21T13:55:19.983Z,99997.67
2018-07-21T13:57:49.189Z,99996.53
2018-07-21T14:00:21.494Z,99997.69
2018-07-21T14:02:52.985Z,99998.50
2018-07-21T14:05:22.157Z,99996.56
2018-07-21T14:07:51.307Z,99993.30
2018-07-21T14:10:19.950Z,99993.02
2018-07-21T14:12:48.877Z,99995.17
2018-07-21T14:15:17.735Z,99989.41
2018-07-21T14:17:49.154Z,99994.11
2018-07-21T14:20:19.193Z,99991.00
2018-07-21T14:22:48.173Z,99987.34
2018-07-21T14:25:17.499Z,99985.09
2018-07-21T14:27:46.551Z,99982.56
2018-07-21T14:30:15.391Z,99985.37
2018-07-21T14:32:44.056Z,99985.19
2018-07-21T14:35:12.990Z,99991.27
2018-07-21T14:37:41.956Z,99987.03
2018-07-21T14:40:11.319Z,99986.27
2018-07-21T14:42:40.459Z,99983.14
2018-07-21T14:45:09.882Z,99994.38
2018-07-21T14:47:38.529Z,99983.84
2018-07-21T14:50:07.983Z,99983.23
2018-07-21T14:52:36.698Z,99986.45
2018-07-21T14:55:05.652Z,99986.13
2018-07-21T14:57:34.248Z,99985.81
2018-07-21T15:00:03.160Z,99986.30
2018-07-21T15:02:31.747Z,99983.66
2018-07-21T15:05:00.288Z,99986.77
2018-07-21T15:07:28.808Z,99981.98
2018-07-21T15:09:57.640Z,99979.38
2018-07-21T15:12:26.075Z,99975.92
2018-07-21T15:14:54.687Z,99979.72
2018-07-21T15:17:23.142Z,99979.53
2018-07-21T15:19:51.745Z,99978.21
2018-07-21T15:22:20.329Z,99980.67
2018-07-21T15:24:48.778Z,99980.85
2018-07-21T15:27:18.334Z,99979.88
2018-07-21T15:29:47.348Z,99976.55
2018-07-21T15:32:15.800Z,99981.19
2018-07-21T15:34:44.620Z,99984.79
2018-07-21T15:37:13.170Z,99984.22
2018-07-21T15:39:42.009Z,99975.65
2018-07-21T15:42:10.869Z,99977.46
2018-07-21T15:44:39.780Z,99976.47
2018-07-21T15:47:10.640Z,99977.62
2018-07-21T15:49:39.243Z,99979.55
2018-07-21T15:52:07.913Z,99975.03
2018-07-21T15:54:36.572Z,99969.96
2018-07-21T15:57:05.256Z,99973.58
2018-07-21T15:59:33.999Z,99972.25
2018-07-21T16:02:02.707Z,99979.41
2018-07-21T16:04:31.147Z,99972.15
2018-07-21T16:06:59.639Z,99974.06
2018-07-21T16:09:28.157Z,99978.04
2018-07-21T16:11:56.535Z,99970.09
2018-07-21T16:14:24.990Z,99969.61
2018-07-21T16:16:53.538Z,99969.09
2018-07-21T16:19:22.097Z,99974.66
2018-07-21T16:21:50.887Z,99972.02
2018-07-21T16:24:19.779Z,99966.67
2018-07-21T16:26:48.368Z,99963.79
2018-07-21T16:29:16.864Z,99961.40
2018-07-21T16:31:45.357Z,99968.30
2018-07-21T16:34:14.676Z,99973.61
2018-07-21T16:36:43.420Z,99958.09
2018-07-21T16:39:12.605Z,99961.56
2018-07-21T16:41:41.340Z,99962.57
2018-07-21T16:44:10.405Z,99958.84
2018-07-21T16:46:39.722Z,99960.16
2018-07-21T16:49:08.611Z,99954.75
2018-07-21T16:51:37.113Z,99955.55
2018-07-21T16:54:07.801Z,99953.97
2018-07-21T16:56:36.245Z,99943.62
2018-07-21T16:59:04.868Z,99948.07
2018-07-21T17:01:33.349Z,99943.62
2018-07-21T17:04:01.753Z,99947.06
2018-07-21T17:06:30.243Z,99948.85
2018-07-21T17:08:58.863Z,99946.50
2018-07-21T17:11:27.270Z,99944.48
2018-07-21T17:13:55.823Z,99951.69
2018-07-21T17:16:24.307Z,99956.44
2018-07-21T17:18:53.114Z,99955.06
2018-07-21T17:21:21.651Z,99953.22
2018-07-21T17:23:50.185Z,99956.91
2018-07-21T17:26:18.746Z,99956.91
2018-07-21T17:28:47.260Z,99953.20
2018-07-21T17:31:15.683Z,99948.39
2018-07-21T17:33:44.156Z,99947.84
2018-07-21T17:36:12.629Z,99950.79
2018-07-21T17:38:41.332Z,99950.76
2018-07-21T17:41:10.727Z,99950.33
2018-07-21T17:43:39.273Z,99948.05
2018-07-21T17:46:08.123Z,99949.98
2018-07-21T17:48:36.780Z,99956.91
2018-07-21T17:51:05.460Z,99957.84
2018-07-21T17:53:33.991Z,99954.17
2018-07-21T17:56:02.361Z,99955.81
2018-07-21T17:58:30.864Z,99954.95
2018-07-21T18:00:59.726Z,99950.96
2018-07-21T18:03:28.163Z,99952.16
2018-07-21T18:05:56.892Z,99955.10
2018-07-21T18:08:25.462Z,99950.52
2018-07-21T18:10:53.935Z,99949.95
2018-07-21T18:13:22.449Z,99949.34
2018-07-21T18:15:51.124Z,99945.97
2018-07-21T18:18:19.618Z,99946.46
2018-07-21T18:20:48.287Z,99951.23
2018-07-21T18:23:16.774Z,99947.23
2018-07-21T18:25:45.566Z,99943.56
2018-07-21T18:28:14.155Z,99951.14
2018-07-21T18:30:42.979Z,99946.83
2018-07-21T18:33:11.617Z,99944.43
2018-07-21T18:35:40.072Z,99950.31
2018-07-21T18:38:08.475Z,99953.57
2018-07-21T18:40:37.067Z,99948.36
2018-07-21T18:43:05.688Z,99947.63
2018-07-21T18:45:34.155Z,99953.52
2018-07-21T18:48:03.047Z,99954.16
2018-07-21T18:50:31.691Z,99951.75
2018-07-21T18:53:00.161Z,99955.65
2018-07-21T18:55:28.770Z,99956.09
2018-07-21T18:57:57.474Z,99957.52
2018-07-21T19:00:26.375Z,99957.98
2018-07-21T19:02:55.003Z,99954.13
2018-07-21T19:05:23.760Z,99956.56
2018-07-21T19:07:52.919Z,99958.15
2018-07-21T19:10:22.397Z,99955.33
2018-07-21T19:12:51.639Z,99957.98
2018-07-21T19:15:25.605Z,99959.79
2018-07-21T19:17:54.425Z,99966.79
2018-07-21T19:20:28.315Z,99966.92
2018-07-21T19:22:56.933Z,99967.98
2018-07-21T19:25:31.014Z,99967.80
2018-07-21T19:27:59.555Z,99970.03
2018-07-21T19:30:28.215Z,99972.73
2018-07-21T19:33:01.139Z,99975.22
2018-07-21T19:35:31.220Z,99981.04
2018-07-21T19:38:00.113Z,99980.11
2018-07-21T19:40:29.132Z,99977.86
2018-07-21T19:42:57.777Z,99984.98
2018-07-21T19:45:26.624Z,99988.45
2018-07-21T19:47:55.474Z,99989.53
2018-07-21T19:50:24.241Z,99986.84
2018-07-21T19:52:52.852Z,99990.85
2018-07-21T19:55:21.599Z,99994.09
2018-07-21T19:57:50.650Z,99987.47
2018-07-21T20:00:19.249Z,99995.48
2018-07-21T20:02:47.933Z,99995.28
2018-07-21T20:05:16.701Z,99997.83
2018-07-21T20:07:46.104Z,99998.65
2018-07-21T20:10:14.994Z,99997.67
2018-07-21T20:12:46.269Z,100003.34
2018-07-21T20:15:15.945Z,100001.92
2018-07-21T20:17:45.363Z,100005.70
2018-07-21T20:20:14.350Z,100008.03
2018-07-21T20:22:42.890Z,100007.98
2018-07-21T20:25:13.475Z,100009.20
2018-07-21T20:27:41.958Z,100006.58
2018-07-21T20:30:12.880Z,100004.97
2018-07-21T20:32:44.134Z,100016.00
2018-07-21T20:35:16.986Z,100010.73
2018-07-21T20:37:46.107Z,100020.52
2018-07-21T20:40:16.121Z,100016.14
2018-07-21T20:42:46.544Z,100015.22
2018-07-21T20:45:15.527Z,100015.02
2018-07-21T20:47:44.778Z,100013.97
2018-07-21T20:50:15.517Z,100020.16
2018-07-21T20:52:44.249Z,100019.63
2018-07-21T20:55:14.073Z,100018.33
2018-07-21T20:57:44.137Z,100024.05
2018-07-21T21:00:16.070Z,100017.74
2018-07-21T21:02:46.159Z,100020.75
2018-07-21T21:05:15.997Z,100020.75
2018-07-21T21:07:46.864Z,100022.28
2018-07-21T21:10:15.573Z,100014.88
2018-07-21T21:12:45.039Z,100015.40
2018-07-21T21:15:16.199Z,100014.45
2018-07-21T21:17:44.986Z,100009.34
2018-07-21T21:20:14.130Z,100007.33
2018-07-21T21:22:45.059Z,100001.61
2018-07-21T21:25:15.248Z,100003.30
2018-07-21T21:27:43.754Z,100003.91
2018-07-21T21:30:13.739Z,99998.58
2018-07-21T21:32:42.769Z,99998.38
2018-07-21T21:35:12.467Z,99997.22
2018-07-21T21:37:47.621Z,99994.84
2018-07-21T21:40:16.242Z,99998.41
2018-07-21T21:42:48.630Z,99998.29
2018-07-21T21:45:19.420Z,100001.83
2018-07-21T21:47:47.897Z,99997.70
2018-07-21T21:50:16.462Z,100004.23
2018-07-21T21:52:44.931Z,100005.45
2018-07-21T21:55:13.775Z,100002.95
2018-07-21T21:57:42.232Z,100002.59
2018-07-21T22:00:13.179Z,100003.41
2018-07-21T22:02:42.038Z,100002.94
2018-07-21T22:05:11.481Z,100000.21
2018-07-21T22:07:40.078Z,100010.35
2018-07-21T22:10:08.601Z,100004.53
2018-07-21T22:12:39.402Z,100007.74
2018-07-21T22:15:15.761Z,100010.40
2018-07-21T22:17:48.585Z,100015.03
2018-07-21T22:20:19.141Z,100013.39
2018-07-21T22:22:50.549Z,100011.64
2018-07-21T22:25:19.310Z,100019.63
2018-07-21T22:27:47.894Z,100019.52
2018-07-21T22:30:20.594Z,100024.97
2018-07-21T22:32:49.493Z,100021.75
2018-07-21T22:35:18.093Z,100021.91
2018-07-21T22:37:46.646Z,100021.64
2018-07-21T22:40:15.394Z,100024.48
2018-07-21T22:42:43.879Z,100028.42
2018-07-21T22:45:12.393Z,100027.72
2018-07-21T22:47:41.264Z,100032.71
2018-07-21T22:50:09.993Z,100036.85
2018-07-21T22:52:38.620Z,100038.86
2018-07-21T22:55:07.248Z,100039.45
2018-07-21T22:57:36.398Z,100044.80
2018-07-21T23:00:05.774Z,100035.91
2018-07-21T23:02:34.324Z,100036.25
2018-07-21T23:05:03.010Z,100032.58
2018-07-21T23:07:32.443Z,100037.70
2018-07-21T23:10:00.910Z,100036.27
2018-07-21T23:12:59.923Z,100037.08
2018-07-21T23:15:28.427Z,100038.77
2018-07-21T23:17:57.085Z,100030.91
2018-07-21T23:20:25.661Z,100025.70
2018-07-21T23:22:54.409Z,100032.69
2018-07-21T23:25:23.098Z,100027.72
2018-07-21T23:27:51.846Z,100026.28
2018-07-21T23:30:20.385Z,100034.83
2018-07-21T23:32:49.190Z,100031.62
2018-07-21T23:35:17.775Z,100030.19
2018-07-21T23:37:46.364Z,100028.53
2018-07-21T23:40:14.863Z,100028.30
2018-07-21T23:42:43.408Z,100026.87
2018-07-21T23:45:12.027Z,100033.40
2018-07-21T23:47:40.555Z,100033.37
2018-07-21T23:50:09.183Z,100036.02
2018-07-21T23:52:37.741Z,100040.16
2018-07-21T23:55:07.344Z,100053.91
2018-07-21T23:57:35.962Z,100063.41
